sensor_id;sensor_type;location;lat;lon;timestamp;P1;durP1;ratioP1;P2;durP2;ratioP2
68449;SDS011;67758;39.572;2.652;2023-02-24T00:01:01;26.83;;;9.43;;
68449;SDS011;67758;39.572;2.652;2023-02-24T00:03:36;29.60;;;9.70;;
68449;SDS011;67758;39.572;2.652;2023-02-24T00:06:02;25.60;;;9.03;;
68449;SDS011;67758;39.572;2.652;2023-02-24T00:08:38;29.80;;;9.93;;
68449;SDS011;67758;39.572;2.652;2023-02-24T00:11:06;25.80;;;9.10;;
68449;SDS011;67758;39.572;2.652;2023-02-24T00:13:37;22.77;;;9.20;;
68449;SDS011;67758;39.572;2.652;2023-02-24T00:16:04;30.80;;;9.97;;
68449;SDS011;67758;39.572;2.652;2023-02-24T00:18:30;22.52;;;9.48;;
68449;SDS011;67758;39.572;2.652;2023-02-24T00:21:07;29.52;;;9.07;;
68449;SDS011;67758;39.572;2.652;2023-02-24T00:23:36;29.38;;;9.73;;
68449;SDS011;67758;39.572;2.652;2023-02-24T00:26:03;26.80;;;9.90;;
68449;SDS011;67758;39.572;2.652;2023-02-24T00:28:31;24.52;;;9.55;;
68449;SDS011;67758;39.572;2.652;2023-02-24T00:31:03;27.17;;;9.85;;
68449;SDS011;67758;39.572;2.652;2023-02-24T00:33:38;29.92;;;10.55;;
68449;SDS011;67758;39.572;2.652;2023-02-24T00:36:05;35.55;;;11.40;;
68449;SDS011;67758;39.572;2.652;2023-02-24T00:38:32;36.60;;;11.93;;
68449;SDS011;67758;39.572;2.652;2023-02-24T00:41:01;34.13;;;11.43;;
68449;SDS011;67758;39.572;2.652;2023-02-24T00:43:39;31.50;;;11.98;;
68449;SDS011;67758;39.572;2.652;2023-02-24T00:46:11;27.15;;;11.48;;
68449;SDS011;67758;39.572;2.652;2023-02-24T00:48:41;32.83;;;11.05;;
68449;SDS011;67758;39.572;2.652;2023-02-24T00:51:12;29.93;;;11.43;;
68449;SDS011;67758;39.572;2.652;2023-02-24T00:53:41;27.90;;;12.55;;
68449;SDS011;67758;39.572;2.652;2023-02-24T00:56:07;38.60;;;13.13;;
68449;SDS011;67758;39.572;2.652;2023-02-24T00:58:40;45.05;;;14.52;;
68449;SDS011;67758;39.572;2.652;2023-02-24T01:01:11;32.50;;;12.65;;
68449;SDS011;67758;39.572;2.652;2023-02-24T01:03:38;29.80;;;12.80;;
68449;SDS011;67758;39.572;2.652;2023-02-24T01:06:05;40.08;;;14.27;;
68449;SDS011;67758;39.572;2.652;2023-02-24T01:08:31;36.03;;;13.73;;
68449;SDS011;67758;39.572;2.652;2023-02-24T01:11:00;29.67;;;13.97;;
68449;SDS011;67758;39.572;2.652;2023-02-24T01:13:46;32.25;;;14.43;;
68449;SDS011;67758;39.572;2.652;2023-02-24T01:16:12;36.92;;;14.63;;
68449;SDS011;67758;39.572;2.652;2023-02-24T01:18:43;36.90;;;15.00;;
68449;SDS011;67758;39.572;2.652;2023-02-24T01:21:15;38.58;;;14.65;;
68449;SDS011;67758;39.572;2.652;2023-02-24T01:23:42;30.60;;;12.23;;
68449;SDS011;67758;39.572;2.652;2023-02-24T01:26:10;32.97;;;13.70;;
68449;SDS011;67758;39.572;2.652;2023-02-24T01:28:35;37.10;;;13.05;;
68449;SDS011;67758;39.572;2.652;2023-02-24T01:31:02;39.17;;;13.93;;
68449;SDS011;67758;39.572;2.652;2023-02-24T01:33:30;45.05;;;14.90;;
68449;SDS011;67758;39.572;2.652;2023-02-24T01:36:10;36.83;;;12.85;;
68449;SDS011;67758;39.572;2.652;2023-02-24T01:38:38;30.95;;;13.30;;
68449;SDS011;67758;39.572;2.652;2023-02-24T01:41:06;41.03;;;15.20;;
68449;SDS011;67758;39.572;2.652;2023-02-24T01:43:33;38.58;;;14.15;;
68449;SDS011;67758;39.572;2.652;2023-02-24T01:46:18;37.15;;;15.55;;
68449;SDS011;67758;39.572;2.652;2023-02-24T01:48:48;36.60;;;15.45;;
68449;SDS011;67758;39.572;2.652;2023-02-24T01:51:16;33.92;;;13.60;;
68449;SDS011;67758;39.572;2.652;2023-02-24T01:53:42;37.33;;;14.93;;
68449;SDS011;67758;39.572;2.652;2023-02-24T01:56:09;32.85;;;14.32;;
68449;SDS011;67758;39.572;2.652;2023-02-24T01:58:37;31.98;;;14.98;;
68449;SDS011;67758;39.572;2.652;2023-02-24T02:01:03;41.10;;;15.48;;
68449;SDS011;67758;39.572;2.652;2023-02-24T02:03:34;40.33;;;15.60;;
68449;SDS011;67758;39.572;2.652;2023-02-24T02:06:03;39.77;;;14.83;;
68449;SDS011;67758;39.572;2.652;2023-02-24T02:08:32;37.67;;;15.57;;
68449;SDS011;67758;39.572;2.652;2023-02-24T02:11:04;37.47;;;15.43;;
68449;SDS011;67758;39.572;2.652;2023-02-24T02:13:32;40.05;;;15.40;;
68449;SDS011;67758;39.572;2.652;2023-02-24T02:16:13;35.55;;;15.43;;
68449;SDS011;67758;39.572;2.652;2023-02-24T02:18:48;40.93;;;15.00;;
68449;SDS011;67758;39.572;2.652;2023-02-24T02:41:05;39.35;;;15.27;;
68449;SDS011;67758;39.572;2.652;2023-02-24T02:49:54;30.80;;;12.98;;
68449;SDS011;67758;39.572;2.652;2023-02-24T02:52:08;34.88;;;13.98;;
68449;SDS011;67758;39.572;2.652;2023-02-24T02:54:47;35.15;;;12.85;;
68449;SDS011;67758;39.572;2.652;2023-02-24T02:57:28;37.90;;;14.55;;
68449;SDS011;67758;39.572;2.652;2023-02-24T02:59:59;41.97;;;16.00;;
68449;SDS011;67758;39.572;2.652;2023-02-24T03:02:29;37.92;;;15.90;;
68449;SDS011;67758;39.572;2.652;2023-02-24T03:05:02;34.15;;;14.82;;
68449;SDS011;67758;39.572;2.652;2023-02-24T03:07:29;42.35;;;15.43;;
68449;SDS011;67758;39.572;2.652;2023-02-24T03:10:03;33.85;;;15.05;;
68449;SDS011;67758;39.572;2.652;2023-02-24T03:12:35;35.30;;;14.27;;
68449;SDS011;67758;39.572;2.652;2023-02-24T03:15:05;36.78;;;13.98;;
68449;SDS011;67758;39.572;2.652;2023-02-24T03:17:36;31.48;;;11.27;;
68449;SDS011;67758;39.572;2.652;2023-02-24T03:23:00;39.70;;;13.35;;
68449;SDS011;67758;39.572;2.652;2023-02-24T03:25:39;34.33;;;11.60;;
68449;SDS011;67758;39.572;2.652;2023-02-24T03:28:21;37.40;;;11.55;;
68449;SDS011;67758;39.572;2.652;2023-02-24T03:31:29;31.50;;;10.20;;
68449;SDS011;67758;39.572;2.652;2023-02-24T03:34:05;42.10;;;11.10;;
68449;SDS011;67758;39.572;2.652;2023-02-24T03:36:41;35.88;;;10.90;;
68449;SDS011;67758;39.572;2.652;2023-02-24T03:39:07;26.17;;;8.90;;
68449;SDS011;67758;39.572;2.652;2023-02-24T03:41:48;39.47;;;10.95;;
68449;SDS011;67758;39.572;2.652;2023-02-24T03:44:20;26.50;;;8.93;;
68449;SDS011;67758;39.572;2.652;2023-02-24T03:46:47;30.45;;;7.93;;
68449;SDS011;67758;39.572;2.652;2023-02-24T03:49:13;33.23;;;8.57;;
68449;SDS011;67758;39.572;2.652;2023-02-24T03:51:42;35.67;;;8.18;;
68449;SDS011;67758;39.572;2.652;2023-02-24T04:00:23;37.17;;;8.05;;
68449;SDS011;67758;39.572;2.652;2023-02-24T04:03:05;31.33;;;7.13;;
68449;SDS011;67758;39.572;2.652;2023-02-24T04:11:41;28.38;;;7.05;;
68449;SDS011;67758;39.572;2.652;2023-02-24T04:14:23;23.52;;;7.45;;
68449;SDS011;67758;39.572;2.652;2023-02-24T04:16:55;28.63;;;6.93;;
68449;SDS011;67758;39.572;2.652;2023-02-24T04:19:28;36.83;;;7.38;;
68449;SDS011;67758;39.572;2.652;2023-02-24T04:21:57;37.28;;;8.43;;
68449;SDS011;67758;39.572;2.652;2023-02-24T04:24:25;27.63;;;7.90;;
68449;SDS011;67758;39.572;2.652;2023-02-24T04:26:55;31.83;;;7.35;;
68449;SDS011;67758;39.572;2.652;2023-02-24T04:29:23;29.93;;;6.80;;
68449;SDS011;67758;39.572;2.652;2023-02-24T04:31:56;33.35;;;7.70;;
68449;SDS011;67758;39.572;2.652;2023-02-24T04:34:26;31.77;;;7.93;;
68449;SDS011;67758;39.572;2.652;2023-02-24T04:36:56;27.35;;;7.05;;
68449;SDS011;67758;39.572;2.652;2023-02-24T04:39:23;33.45;;;8.52;;
68449;SDS011;67758;39.572;2.652;2023-02-24T04:41:50;24.77;;;6.87;;
68449;SDS011;67758;39.572;2.652;2023-02-24T04:44:16;29.65;;;7.53;;
68449;SDS011;67758;39.572;2.652;2023-02-24T04:46:43;31.38;;;7.28;;
68449;SDS011;67758;39.572;2.652;2023-02-24T04:49:13;23.10;;;7.00;;
68449;SDS011;67758;39.572;2.652;2023-02-24T04:51:40;28.02;;;6.90;;
68449;SDS011;67758;39.572;2.652;2023-02-24T04:54:09;30.47;;;7.30;;
68449;SDS011;67758;39.572;2.652;2023-02-24T04:56:44;22.88;;;5.75;;
68449;SDS011;67758;39.572;2.652;2023-02-24T04:59:15;23.92;;;7.00;;
68449;SDS011;67758;39.572;2.652;2023-02-24T05:01:45;26.40;;;6.38;;
68449;SDS011;67758;39.572;2.652;2023-02-24T05:04:12;26.63;;;6.75;;
68449;SDS011;67758;39.572;2.652;2023-02-24T05:06:41;24.53;;;6.30;;
68449;SDS011;67758;39.572;2.652;2023-02-24T05:09:14;35.88;;;7.30;;
68449;SDS011;67758;39.572;2.652;2023-02-24T05:11:43;32.05;;;6.45;;
68449;SDS011;67758;39.572;2.652;2023-02-24T05:14:16;24.90;;;7.22;;
68449;SDS011;67758;39.572;2.652;2023-02-24T05:16:46;30.13;;;7.50;;
68449;SDS011;67758;39.572;2.652;2023-02-24T05:19:14;29.43;;;8.27;;
68449;SDS011;67758;39.572;2.652;2023-02-24T05:22:00;24.27;;;7.22;;
68449;SDS011;67758;39.572;2.652;2023-02-24T05:24:29;29.05;;;6.50;;
68449;SDS011;67758;39.572;2.652;2023-02-24T05:26:55;30.02;;;6.20;;
68449;SDS011;67758;39.572;2.652;2023-02-24T05:29:27;24.27;;;5.50;;
68449;SDS011;67758;39.572;2.652;2023-02-24T05:31:54;24.77;;;6.67;;
68449;SDS011;67758;39.572;2.652;2023-02-24T05:34:27;26.95;;;6.95;;
68449;SDS011;67758;39.572;2.652;2023-02-24T05:36:59;28.33;;;7.78;;
68449;SDS011;67758;39.572;2.652;2023-02-24T05:39:28;33.47;;;7.70;;
68449;SDS011;67758;39.572;2.652;2023-02-24T05:41:54;26.20;;;7.90;;
68449;SDS011;67758;39.572;2.652;2023-02-24T05:44:22;27.25;;;8.15;;
68449;SDS011;67758;39.572;2.652;2023-02-24T05:46:51;24.63;;;7.57;;
68449;SDS011;67758;39.572;2.652;2023-02-24T05:49:23;28.05;;;7.63;;
68449;SDS011;67758;39.572;2.652;2023-02-24T05:51:53;24.47;;;6.83;;
68449;SDS011;67758;39.572;2.652;2023-02-24T05:54:23;24.50;;;6.50;;
68449;SDS011;67758;39.572;2.652;2023-02-24T05:56:53;27.25;;;6.45;;
68449;SDS011;67758;39.572;2.652;2023-02-24T05:59:21;27.10;;;6.30;;
68449;SDS011;67758;39.572;2.652;2023-02-24T06:01:55;27.45;;;7.40;;
68449;SDS011;67758;39.572;2.652;2023-02-24T06:04:24;20.33;;;3.93;;
68449;SDS011;67758;39.572;2.652;2023-02-24T06:07:03;18.10;;;4.68;;
68449;SDS011;67758;39.572;2.652;2023-02-24T06:09:43;18.38;;;5.65;;
68449;SDS011;67758;39.572;2.652;2023-02-24T06:12:11;19.15;;;4.05;;
68449;SDS011;67758;39.572;2.652;2023-02-24T06:14:39;18.30;;;3.17;;
68449;SDS011;67758;39.572;2.652;2023-02-24T06:17:06;21.43;;;3.30;;
68449;SDS011;67758;39.572;2.652;2023-02-24T06:19:32;17.30;;;3.40;;
68449;SDS011;67758;39.572;2.652;2023-02-24T06:21:58;21.27;;;4.85;;
68449;SDS011;67758;39.572;2.652;2023-02-24T06:24:29;19.17;;;4.73;;
68449;SDS011;67758;39.572;2.652;2023-02-24T06:26:56;20.73;;;5.32;;
68449;SDS011;67758;39.572;2.652;2023-02-24T06:29:27;28.95;;;6.40;;
68449;SDS011;67758;39.572;2.652;2023-02-24T06:31:54;23.83;;;7.03;;
68449;SDS011;67758;39.572;2.652;2023-02-24T06:34:22;22.58;;;6.05;;
68449;SDS011;67758;39.572;2.652;2023-02-24T06:36:49;24.40;;;6.80;;
68449;SDS011;67758;39.572;2.652;2023-02-24T06:39:17;18.17;;;6.60;;
68449;SDS011;67758;39.572;2.652;2023-02-24T06:41:43;22.95;;;6.55;;
68449;SDS011;67758;39.572;2.652;2023-02-24T06:44:10;22.48;;;6.50;;
68449;SDS011;67758;39.572;2.652;2023-02-24T06:46:35;32.57;;;7.50;;
68449;SDS011;67758;39.572;2.652;2023-02-24T06:49:01;22.13;;;4.95;;
68449;SDS011;67758;39.572;2.652;2023-02-24T06:51:28;25.92;;;5.68;;
68449;SDS011;67758;39.572;2.652;2023-02-24T06:53:57;22.07;;;5.50;;
68449;SDS011;67758;39.572;2.652;2023-02-24T06:56:24;18.98;;;5.75;;
68449;SDS011;67758;39.572;2.652;2023-02-24T06:58:50;18.48;;;5.47;;
68449;SDS011;67758;39.572;2.652;2023-02-24T07:01:20;25.00;;;6.35;;
68449;SDS011;67758;39.572;2.652;2023-02-24T07:03:51;22.45;;;5.07;;
68449;SDS011;67758;39.572;2.652;2023-02-24T07:06:27;20.37;;;5.30;;
68449;SDS011;67758;39.572;2.652;2023-02-24T07:08:59;27.98;;;5.60;;
68449;SDS011;67758;39.572;2.652;2023-02-24T07:11:31;18.02;;;5.40;;
68449;SDS011;67758;39.572;2.652;2023-02-24T07:13:58;20.05;;;5.30;;
68449;SDS011;67758;39.572;2.652;2023-02-24T07:16:24;19.27;;;4.65;;
68449;SDS011;67758;39.572;2.652;2023-02-24T07:18:59;17.63;;;4.97;;
68449;SDS011;67758;39.572;2.652;2023-02-24T07:21:27;22.95;;;5.30;;
68449;SDS011;67758;39.572;2.652;2023-02-24T07:23:54;25.15;;;5.35;;
68449;SDS011;67758;39.572;2.652;2023-02-24T07:26:24;28.00;;;5.03;;
68449;SDS011;67758;39.572;2.652;2023-02-24T07:28:52;21.48;;;4.60;;
68449;SDS011;67758;39.572;2.652;2023-02-24T07:31:22;21.07;;;4.80;;
68449;SDS011;67758;39.572;2.652;2023-02-24T07:33:55;18.33;;;4.55;;
68449;SDS011;67758;39.572;2.652;2023-02-24T07:36:21;15.40;;;4.60;;
68449;SDS011;67758;39.572;2.652;2023-02-24T07:38:48;25.25;;;4.93;;
68449;SDS011;67758;39.572;2.652;2023-02-24T07:41:18;26.85;;;5.18;;
68449;SDS011;67758;39.572;2.652;2023-02-24T07:43:47;58.57;;;9.23;;
68449;SDS011;67758;39.572;2.652;2023-02-24T07:46:19;29.73;;;5.18;;
68449;SDS011;67758;39.572;2.652;2023-02-24T07:48:50;26.92;;;5.55;;
68449;SDS011;67758;39.572;2.652;2023-02-24T07:51:17;25.70;;;5.28;;
68449;SDS011;67758;39.572;2.652;2023-02-24T07:53:47;26.63;;;4.85;;
68449;SDS011;67758;39.572;2.652;2023-02-24T07:56:15;25.30;;;5.13;;
68449;SDS011;67758;39.572;2.652;2023-02-24T07:58:44;41.10;;;6.18;;
68449;SDS011;67758;39.572;2.652;2023-02-24T08:01:11;36.10;;;6.28;;
68449;SDS011;67758;39.572;2.652;2023-02-24T08:03:53;31.08;;;5.80;;
68449;SDS011;67758;39.572;2.652;2023-02-24T08:06:23;23.88;;;5.88;;
68449;SDS011;67758;39.572;2.652;2023-02-24T08:09:02;28.37;;;6.13;;
68449;SDS011;67758;39.572;2.652;2023-02-24T08:11:52;36.22;;;5.65;;
68449;SDS011;67758;39.572;2.652;2023-02-24T08:14:19;22.42;;;6.43;;
68449;SDS011;67758;39.572;2.652;2023-02-24T08:16:51;21.40;;;5.10;;
68449;SDS011;67758;39.572;2.652;2023-02-24T08:19:24;15.45;;;3.90;;
68449;SDS011;67758;39.572;2.652;2023-02-24T08:21:57;15.03;;;4.50;;
68449;SDS011;67758;39.572;2.652;2023-02-24T08:24:53;20.98;;;5.45;;
68449;SDS011;67758;39.572;2.652;2023-02-24T08:27:21;18.02;;;5.82;;
68449;SDS011;67758;39.572;2.652;2023-02-24T08:29:49;20.35;;;6.68;;
68449;SDS011;67758;39.572;2.652;2023-02-24T08:32:28;20.30;;;5.43;;
68449;SDS011;67758;39.572;2.652;2023-02-24T08:35:00;18.97;;;5.23;;
68449;SDS011;67758;39.572;2.652;2023-02-24T08:37:30;15.48;;;4.68;;
68449;SDS011;67758;39.572;2.652;2023-02-24T08:40:07;20.40;;;5.60;;
68449;SDS011;67758;39.572;2.652;2023-02-24T08:42:55;24.73;;;6.57;;
68449;SDS011;67758;39.572;2.652;2023-02-24T08:45:23;20.17;;;6.43;;
68449;SDS011;67758;39.572;2.652;2023-02-24T08:47:53;23.67;;;6.37;;
68449;SDS011;67758;39.572;2.652;2023-02-24T08:50:27;25.55;;;8.57;;
68449;SDS011;67758;39.572;2.652;2023-02-24T08:52:58;25.13;;;9.35;;
68449;SDS011;67758;39.572;2.652;2023-02-24T08:55:25;26.50;;;9.63;;
68449;SDS011;67758;39.572;2.652;2023-02-24T08:57:57;25.65;;;10.52;;
68449;SDS011;67758;39.572;2.652;2023-02-24T09:00:30;30.93;;;10.97;;
68449;SDS011;67758;39.572;2.652;2023-02-24T09:03:19;27.23;;;11.90;;
68449;SDS011;67758;39.572;2.652;2023-02-24T09:06:10;30.63;;;11.15;;
68449;SDS011;67758;39.572;2.652;2023-02-24T09:08:44;25.60;;;11.88;;
68449;SDS011;67758;39.572;2.652;2023-02-24T09:11:11;28.77;;;12.30;;
68449;SDS011;67758;39.572;2.652;2023-02-24T09:13:42;28.00;;;11.80;;
68449;SDS011;67758;39.572;2.652;2023-02-24T09:16:22;31.23;;;11.98;;
68449;SDS011;67758;39.572;2.652;2023-02-24T09:18:49;36.03;;;13.38;;
68449;SDS011;67758;39.572;2.652;2023-02-24T09:21:34;34.35;;;13.52;;
68449;SDS011;67758;39.572;2.652;2023-02-24T09:24:03;40.40;;;15.07;;
68449;SDS011;67758;39.572;2.652;2023-02-24T09:26:32;33.57;;;13.03;;
68449;SDS011;67758;39.572;2.652;2023-02-24T09:29:11;33.47;;;12.55;;
68449;SDS011;67758;39.572;2.652;2023-02-24T09:31:57;32.60;;;13.25;;
68449;SDS011;67758;39.572;2.652;2023-02-24T09:34:33;36.05;;;11.88;;
68449;SDS011;67758;39.572;2.652;2023-02-24T09:37:00;35.50;;;10.88;;
68449;SDS011;67758;39.572;2.652;2023-02-24T09:39:31;31.67;;;11.33;;
68449;SDS011;67758;39.572;2.652;2023-02-24T09:42:18;29.45;;;12.00;;
68449;SDS011;67758;39.572;2.652;2023-02-24T09:45:09;30.92;;;12.20;;
68449;SDS011;67758;39.572;2.652;2023-02-24T09:52:50;31.90;;;10.80;;
68449;SDS011;67758;39.572;2.652;2023-02-24T09:55:22;23.90;;;8.00;;
68449;SDS011;67758;39.572;2.652;2023-02-24T10:00:57;19.65;;;6.22;;
68449;SDS011;67758;39.572;2.652;2023-02-24T10:03:53;15.07;;;3.33;;
68449;SDS011;67758;39.572;2.652;2023-02-24T10:06:30;13.87;;;3.90;;
68449;SDS011;67758;39.572;2.652;2023-02-24T10:09:03;8.85;;;2.80;;
68449;SDS011;67758;39.572;2.652;2023-02-24T10:11:39;11.85;;;3.00;;
68449;SDS011;67758;39.572;2.652;2023-02-24T10:14:27;12.43;;;2.85;;
68449;SDS011;67758;39.572;2.652;2023-02-24T10:17:09;18.30;;;3.47;;
68449;SDS011;67758;39.572;2.652;2023-02-24T10:19:50;10.50;;;3.17;;
68449;SDS011;67758;39.572;2.652;2023-02-24T10:30:47;12.20;;;3.05;;
68449;SDS011;67758;39.572;2.652;2023-02-24T10:33:37;14.23;;;2.97;;
68449;SDS011;67758;39.572;2.652;2023-02-24T10:38:37;13.75;;;3.05;;
68449;SDS011;67758;39.572;2.652;2023-02-24T10:41:07;13.80;;;3.55;;
68449;SDS011;67758;39.572;2.652;2023-02-24T10:43:34;14.57;;;3.17;;
68449;SDS011;67758;39.572;2.652;2023-02-24T10:46:19;12.97;;;2.80;;
68449;SDS011;67758;39.572;2.652;2023-02-24T10:48:54;13.90;;;3.50;;
68449;SDS011;67758;39.572;2.652;2023-02-24T10:51:27;10.55;;;2.60;;
68449;SDS011;67758;39.572;2.652;2023-02-24T10:54:05;12.05;;;2.80;;
68449;SDS011;67758;39.572;2.652;2023-02-24T10:56:57;13.32;;;3.10;;
68449;SDS011;67758;39.572;2.652;2023-02-24T11:02:52;14.07;;;3.25;;
68449;SDS011;67758;39.572;2.652;2023-02-24T11:05:41;13.73;;;3.53;;
68449;SDS011;67758;39.572;2.652;2023-02-24T11:08:33;10.13;;;3.53;;
68449;SDS011;67758;39.572;2.652;2023-02-24T11:11:06;11.88;;;3.75;;
68449;SDS011;67758;39.572;2.652;2023-02-24T11:13:49;12.60;;;2.80;;
68449;SDS011;67758;39.572;2.652;2023-02-24T11:17:11;11.30;;;2.90;;
68449;SDS011;67758;39.572;2.652;2023-02-24T11:19:42;9.20;;;2.83;;
68449;SDS011;67758;39.572;2.652;2023-02-24T11:22:13;11.38;;;3.03;;
68449;SDS011;67758;39.572;2.652;2023-02-24T11:24:44;9.82;;;3.25;;
68449;SDS011;67758;39.572;2.652;2023-02-24T11:27:10;9.97;;;3.80;;
68449;SDS011;67758;39.572;2.652;2023-02-24T11:40:08;10.30;;;3.20;;
68449;SDS011;67758;39.572;2.652;2023-02-24T11:45:25;9.23;;;2.63;;
68449;SDS011;67758;39.572;2.652;2023-02-24T11:47:56;11.65;;;2.45;;
68449;SDS011;67758;39.572;2.652;2023-02-24T11:50:31;14.80;;;3.22;;
68449;SDS011;67758;39.572;2.652;2023-02-24T11:53:06;13.23;;;2.83;;
68449;SDS011;67758;39.572;2.652;2023-02-24T11:55:46;8.45;;;2.17;;
68449;SDS011;67758;39.572;2.652;2023-02-24T11:58:20;13.10;;;5.05;;
68449;SDS011;67758;39.572;2.652;2023-02-24T12:01:01;19.45;;;7.38;;
68449;SDS011;67758;39.572;2.652;2023-02-24T12:06:13;29.23;;;11.20;;
68449;SDS011;67758;39.572;2.652;2023-02-24T12:08:47;26.48;;;9.02;;
68449;SDS011;67758;39.572;2.652;2023-02-24T12:14:32;16.80;;;6.43;;
68449;SDS011;67758;39.572;2.652;2023-02-24T12:17:15;17.83;;;5.35;;
68449;SDS011;67758;39.572;2.652;2023-02-24T12:22:13;24.45;;;9.23;;
68449;SDS011;67758;39.572;2.652;2023-02-24T12:24:47;27.38;;;8.93;;
68449;SDS011;67758;39.572;2.652;2023-02-24T12:29:58;27.88;;;9.45;;
68449;SDS011;67758;39.572;2.652;2023-02-24T12:41:14;21.20;;;6.50;;
68449;SDS011;67758;39.572;2.652;2023-02-24T12:47:13;25.15;;;10.40;;
68449;SDS011;67758;39.572;2.652;2023-02-24T12:49:54;29.45;;;10.75;;
68449;SDS011;67758;39.572;2.652;2023-02-24T12:55:18;30.30;;;10.70;;
68449;SDS011;67758;39.572;2.652;2023-02-24T13:11:23;29.88;;;9.65;;
68449;SDS011;67758;39.572;2.652;2023-02-24T13:19:30;28.83;;;8.20;;
68449;SDS011;67758;39.572;2.652;2023-02-24T13:22:05;19.47;;;6.97;;
68449;SDS011;67758;39.572;2.652;2023-02-24T13:24:41;26.20;;;8.10;;
68449;SDS011;67758;39.572;2.652;2023-02-24T13:29:43;17.35;;;6.05;;
68449;SDS011;67758;39.572;2.652;2023-02-24T13:32:25;24.33;;;6.65;;
68449;SDS011;67758;39.572;2.652;2023-02-24T13:34:57;25.83;;;6.53;;
68449;SDS011;67758;39.572;2.652;2023-02-24T13:37:29;24.83;;;6.40;;
68449;SDS011;67758;39.572;2.652;2023-02-24T13:40:11;20.83;;;5.55;;
68449;SDS011;67758;39.572;2.652;2023-02-24T13:42:43;25.02;;;6.93;;
68449;SDS011;67758;39.572;2.652;2023-02-24T13:45:43;17.05;;;5.72;;
68449;SDS011;67758;39.572;2.652;2023-02-24T13:56:23;18.95;;;5.45;;
68449;SDS011;67758;39.572;2.652;2023-02-24T13:58:54;23.45;;;5.25;;
68449;SDS011;67758;39.572;2.652;2023-02-24T14:01:30;18.73;;;4.80;;
68449;SDS011;67758;39.572;2.652;2023-02-24T14:06:47;17.95;;;6.35;;
68449;SDS011;67758;39.572;2.652;2023-02-24T14:09:17;22.23;;;6.63;;
68449;SDS011;67758;39.572;2.652;2023-02-24T14:11:50;17.33;;;5.80;;
68449;SDS011;67758;39.572;2.652;2023-02-24T14:14:23;22.57;;;5.83;;
68449;SDS011;67758;39.572;2.652;2023-02-24T14:16:50;32.13;;;8.68;;
68449;SDS011;67758;39.572;2.652;2023-02-24T14:19:16;17.55;;;4.95;;
68449;SDS011;67758;39.572;2.652;2023-02-24T14:21:46;15.77;;;4.10;;
68449;SDS011;67758;39.572;2.652;2023-02-24T14:24:17;13.17;;;3.20;;
68449;SDS011;67758;39.572;2.652;2023-02-24T14:26:44;13.35;;;3.38;;
68449;SDS011;67758;39.572;2.652;2023-02-24T14:29:19;11.80;;;3.05;;
68449;SDS011;67758;39.572;2.652;2023-02-24T14:31:57;12.15;;;2.72;;
68449;SDS011;67758;39.572;2.652;2023-02-24T14:34:27;12.43;;;3.05;;
68449;SDS011;67758;39.572;2.652;2023-02-24T14:36:58;12.77;;;2.80;;
68449;SDS011;67758;39.572;2.652;2023-02-24T14:39:30;29.73;;;8.57;;
68449;SDS011;67758;39.572;2.652;2023-02-24T14:42:03;24.23;;;6.65;;
68449;SDS011;67758;39.572;2.652;2023-02-24T14:44:33;16.60;;;3.08;;
68449;SDS011;67758;39.572;2.652;2023-02-24T14:47:01;9.02;;;3.35;;
68449;SDS011;67758;39.572;2.652;2023-02-24T14:49:29;10.83;;;3.40;;
68449;SDS011;67758;39.572;2.652;2023-02-24T14:51:58;11.43;;;3.03;;
68449;SDS011;67758;39.572;2.652;2023-02-24T14:57:15;13.15;;;3.20;;
68449;SDS011;67758;39.572;2.652;2023-02-24T14:59:45;25.33;;;7.97;;
68449;SDS011;67758;39.572;2.652;2023-02-24T15:02:15;17.07;;;4.00;;
68449;SDS011;67758;39.572;2.652;2023-02-24T15:04:45;16.05;;;3.70;;
68449;SDS011;67758;39.572;2.652;2023-02-24T15:07:21;14.13;;;2.90;;
68449;SDS011;67758;39.572;2.652;2023-02-24T15:09:50;18.83;;;3.40;;
68449;SDS011;67758;39.572;2.652;2023-02-24T15:12:21;13.98;;;3.03;;
68449;SDS011;67758;39.572;2.652;2023-02-24T15:14:53;12.80;;;4.07;;
68449;SDS011;67758;39.572;2.652;2023-02-24T15:17:22;16.63;;;3.28;;
68449;SDS011;67758;39.572;2.652;2023-02-24T15:19:49;11.52;;;4.00;;
68449;SDS011;67758;39.572;2.652;2023-02-24T15:25:41;14.18;;;3.25;;
68449;SDS011;67758;39.572;2.652;2023-02-24T15:30:27;12.30;;;2.92;;
68449;SDS011;67758;39.572;2.652;2023-02-24T15:35:45;15.27;;;2.70;;
68449;SDS011;67758;39.572;2.652;2023-02-24T15:38:19;12.60;;;2.78;;
68449;SDS011;67758;39.572;2.652;2023-02-24T15:40:56;11.83;;;2.20;;
68449;SDS011;67758;39.572;2.652;2023-02-24T15:43:31;11.50;;;2.50;;
68449;SDS011;67758;39.572;2.652;2023-02-24T15:45:57;8.52;;;2.10;;
68449;SDS011;67758;39.572;2.652;2023-02-24T15:48:23;9.17;;;2.20;;
68449;SDS011;67758;39.572;2.652;2023-02-24T15:50:52;9.02;;;2.55;;
68449;SDS011;67758;39.572;2.652;2023-02-24T15:53:18;14.80;;;3.38;;
68449;SDS011;67758;39.572;2.652;2023-02-24T15:55:44;8.93;;;2.50;;
68449;SDS011;67758;39.572;2.652;2023-02-24T15:58:17;13.10;;;3.30;;
68449;SDS011;67758;39.572;2.652;2023-02-24T16:00:45;13.05;;;2.60;;
68449;SDS011;67758;39.572;2.652;2023-02-24T16:03:16;14.10;;;2.33;;
68449;SDS011;67758;39.572;2.652;2023-02-24T16:05:42;11.35;;;2.63;;
68449;SDS011;67758;39.572;2.652;2023-02-24T16:08:12;9.83;;;2.60;;
68449;SDS011;67758;39.572;2.652;2023-02-24T16:10:42;13.43;;;3.00;;
68449;SDS011;67758;39.572;2.652;2023-02-24T16:13:14;12.70;;;2.47;;
68449;SDS011;67758;39.572;2.652;2023-02-24T16:15:45;11.55;;;2.78;;
68449;SDS011;67758;39.572;2.652;2023-02-24T16:18:18;16.67;;;3.23;;
68449;SDS011;67758;39.572;2.652;2023-02-24T16:20:46;16.05;;;5.63;;
68449;SDS011;67758;39.572;2.652;2023-02-24T16:23:18;12.00;;;4.00;;
68449;SDS011;67758;39.572;2.652;2023-02-24T16:25:45;16.77;;;4.13;;
68449;SDS011;67758;39.572;2.652;2023-02-24T16:28:14;13.23;;;3.90;;
68449;SDS011;67758;39.572;2.652;2023-02-24T16:30:43;11.52;;;3.15;;
68449;SDS011;67758;39.572;2.652;2023-02-24T16:33:12;11.77;;;3.30;;
68449;SDS011;67758;39.572;2.652;2023-02-24T16:35:38;11.50;;;3.08;;
68449;SDS011;67758;39.572;2.652;2023-02-24T16:38:06;9.35;;;2.92;;
68449;SDS011;67758;39.572;2.652;2023-02-24T16:40:39;12.60;;;2.83;;
68449;SDS011;67758;39.572;2.652;2023-02-24T16:43:08;7.47;;;1.67;;
68449;SDS011;67758;39.572;2.652;2023-02-24T16:45:34;8.65;;;2.30;;
68449;SDS011;67758;39.572;2.652;2023-02-24T16:48:03;9.82;;;2.10;;
68449;SDS011;67758;39.572;2.652;2023-02-24T16:50:36;11.40;;;2.17;;
68449;SDS011;67758;39.572;2.652;2023-02-24T16:53:13;12.73;;;2.40;;
68449;SDS011;67758;39.572;2.652;2023-02-24T16:55:41;10.85;;;2.38;;
68449;SDS011;67758;39.572;2.652;2023-02-24T16:58:07;12.52;;;2.10;;
68449;SDS011;67758;39.572;2.652;2023-02-24T17:00:34;7.40;;;1.90;;
68449;SDS011;67758;39.572;2.652;2023-02-24T17:03:02;8.70;;;1.90;;
68449;SDS011;67758;39.572;2.652;2023-02-24T17:05:30;14.33;;;2.53;;
68449;SDS011;67758;39.572;2.652;2023-02-24T17:07:56;11.15;;;2.92;;
68449;SDS011;67758;39.572;2.652;2023-02-24T17:10:22;13.00;;;2.70;;
68449;SDS011;67758;39.572;2.652;2023-02-24T17:12:50;11.45;;;2.70;;
68449;SDS011;67758;39.572;2.652;2023-02-24T17:15:17;19.17;;;3.67;;
68449;SDS011;67758;39.572;2.652;2023-02-24T17:17:47;11.15;;;3.28;;
68449;SDS011;67758;39.572;2.652;2023-02-24T17:20:14;13.15;;;3.88;;
68449;SDS011;67758;39.572;2.652;2023-02-24T17:22:41;14.00;;;4.23;;
68449;SDS011;67758;39.572;2.652;2023-02-24T17:25:12;12.65;;;4.50;;